createdAt,value
2023-05-07T00:03:15.033Z,7.22
2023-05-07T00:08:08.249Z,7.13
2023-05-07T00:13:01.597Z,7.30
2023-05-07T00:17:56.141Z,5.93
2023-05-07T00:22:49.390Z,9.55
2023-05-07T00:27:42.675Z,5.88
2023-05-07T00:32:36.008Z,8.13
2023-05-07T00:37:31.170Z,7.47
2023-05-07T00:42:25.136Z,8.48
2023-05-07T00:47:19.237Z,7.18
2023-05-07T00:52:14.131Z,6.05
2023-05-07T00:57:08.916Z,6.47
2023-05-07T01:02:02.114Z,11.57
2023-05-07T01:06:56.933Z,9.57
2023-05-07T01:11:52.781Z,9.23
2023-05-07T01:16:47.508Z,6.70
2023-05-07T01:21:46.030Z,5.97
2023-05-07T01:26:41.959Z,7.85
2023-05-07T01:31:37.001Z,6.53
2023-05-07T01:36:31.425Z,11.68
2023-05-07T01:41:24.716Z,8.57
2023-05-07T01:46:20.389Z,9.35
2023-05-07T01:51:13.976Z,7.63
2023-05-07T01:56:07.877Z,10.93
2023-05-07T02:01:03.549Z,7.60
2023-05-07T02:05:58.559Z,9.85
2023-05-07T02:10:59.668Z,8.95
2023-05-07T02:15:52.936Z,8.75
2023-05-07T02:20:46.315Z,9.13
2023-05-07T02:25:41.149Z,7.55
2023-05-07T02:30:34.311Z,9.52
2023-05-07T02:35:27.691Z,9.52
2023-05-07T02:40:21.539Z,9.10
2023-05-07T02:45:16.762Z,8.55
2023-05-07T02:50:12.207Z,7.32
2023-05-07T02:55:07.197Z,7.35
2023-05-07T03:00:01.148Z,6.97
2023-05-07T03:04:59.060Z,8.15
2023-05-07T03:09:52.333Z,11.50
2023-05-07T03:14:45.713Z,9.35
2023-05-07T03:19:39.015Z,10.63
2023-05-07T03:24:33.706Z,9.27
2023-05-07T03:29:27.002Z,8.18
2023-05-07T03:34:23.160Z,9.30
2023-05-07T03:39:16.748Z,9.27
2023-05-07T03:44:11.454Z,7.78
2023-05-07T03:49:05.403Z,8.70
2023-05-07T03:53:58.796Z,9.60
2023-05-07T03:58:54.456Z,9.25
2023-05-07T04:03:49.392Z,8.70
2023-05-07T04:08:43.388Z,12.68
2023-05-07T04:13:36.669Z,8.57
2023-05-07T04:18:32.846Z,8.32
2023-05-07T04:23:28.019Z,10.10
2023-05-07T04:28:22.850Z,9.90
2023-05-07T04:33:17.948Z,10.20
2023-05-07T04:38:12.094Z,11.07
2023-05-07T04:43:08.529Z,8.48
2023-05-07T04:48:08.012Z,6.90
2023-05-07T04:53:01.606Z,6.15
2023-05-07T04:57:55.594Z,8.05
2023-05-07T05:02:51.634Z,6.55
2023-05-07T05:07:47.724Z,6.80
2023-05-07T05:12:41.317Z,8.52
2023-05-07T05:17:35.794Z,7.03
2023-05-07T05:22:32.571Z,7.47
2023-05-07T05:27:26.986Z,7.20
2023-05-07T05:32:21.127Z,6.72
2023-05-07T05:37:14.886Z,7.47
2023-05-07T05:42:09.778Z,6.38
2023-05-07T05:47:03.503Z,7.15
2023-05-07T05:51:57.333Z,10.25
2023-05-07T05:56:52.389Z,5.70
2023-05-07T06:01:47.331Z,6.57
2023-05-07T06:06:40.771Z,6.30
2023-05-07T06:11:34.667Z,9.55
2023-05-07T06:16:28.328Z,5.53
2023-05-07T06:21:23.017Z,5.10
2023-05-07T06:26:16.223Z,7.72
2023-05-07T06:31:14.394Z,5.15
2023-05-07T06:36:09.385Z,6.13
2023-05-07T06:41:04.956Z,4.82
2023-05-07T06:45:58.329Z,9.20
2023-05-07T06:50:52.206Z,4.78
2023-05-07T06:55:45.768Z,4.78
2023-05-07T07:00:41.848Z,5.80
2023-05-07T07:05:35.526Z,6.10
2023-05-07T07:10:30.448Z,5.05
2023-05-07T07:15:26.001Z,6.18
2023-05-07T07:20:22.285Z,8.85
2023-05-07T07:25:15.589Z,4.30
2023-05-07T07:30:10.683Z,4.82
2023-05-07T07:35:07.678Z,6.50
2023-05-07T07:40:04.547Z,4.75
2023-05-07T07:44:58.815Z,4.70
2023-05-07T07:49:55.970Z,6.22
2023-05-07T07:54:49.551Z,5.53
2023-05-07T07:59:44.562Z,7.20
2023-05-07T08:04:40.018Z,8.63
2023-05-07T08:09:35.013Z,4.07
2023-05-07T08:14:30.052Z,5.18
2023-05-07T08:19:25.081Z,8.18
2023-05-07T08:24:18.680Z,7.30
2023-05-07T08:29:13.774Z,3.90
2023-05-07T08:34:09.538Z,5.05
2023-05-07T08:39:07.533Z,3.83
2023-05-07T08:44:04.723Z,3.42
2023-05-07T08:48:58.005Z,3.42
2023-05-07T08:53:52.042Z,2.30
2023-05-07T08:58:57.594Z,4.45
2023-05-07T09:03:54.044Z,3.40
2023-05-07T09:08:52.976Z,3.28
2023-05-07T09:13:46.697Z,4.05
2023-05-07T09:18:44.639Z,7.97
2023-05-07T09:23:39.747Z,3.85
2023-05-07T09:28:34.191Z,2.80
2023-05-07T09:33:29.801Z,2.45
2023-05-07T09:38:25.913Z,3.10
2023-05-07T09:43:23.854Z,2.33
2023-05-07T09:48:23.324Z,4.47
2023-05-07T09:53:21.311Z,4.20
2023-05-07T09:58:18.584Z,4.10
2023-05-07T10:03:14.060Z,3.90
2023-05-07T10:08:17.983Z,6.43
2023-05-07T10:13:14.428Z,4.72
2023-05-07T10:18:16.576Z,4.40
2023-05-07T10:23:17.004Z,4.38
2023-05-07T10:28:14.736Z,5.78
2023-05-07T10:33:16.112Z,2.63
2023-05-07T10:38:11.489Z,3.33
2023-05-07T10:43:10.567Z,4.32
2023-05-07T10:48:28.009Z,3.42
2023-05-07T10:53:29.494Z,3.97
2023-05-07T10:58:34.248Z,3.08
2023-05-07T11:04:16.358Z,5.30
2023-05-07T11:09:23.745Z,3.67
2023-05-07T11:14:46.004Z,4.13
2023-05-07T11:19:53.579Z,4.00
2023-05-07T11:25:12.882Z,4.00
2023-05-07T11:30:07.206Z,3.95
2023-05-07T11:35:02.144Z,2.78
2023-05-07T11:40:06.595Z,3.85
2023-05-07T11:45:01.087Z,4.07
2023-05-07T11:49:57.516Z,3.88
2023-05-07T11:54:56.949Z,3.58
2023-05-07T11:59:50.267Z,5.53
2023-05-07T12:04:44.721Z,5.30
2023-05-07T12:09:37.835Z,8.23
2023-05-07T12:14:31.312Z,5.22
2023-05-07T12:19:25.034Z,5.65
2023-05-07T12:24:21.946Z,4.05
2023-05-07T12:29:15.316Z,3.10
2023-05-07T12:34:08.456Z,4.07
2023-05-07T12:39:01.955Z,5.90
2023-05-07T12:43:58.917Z,3.70
2023-05-07T12:48:52.073Z,4.28
2023-05-07T12:53:45.263Z,4.40
2023-05-07T12:58:38.729Z,3.75
2023-05-07T13:03:36.190Z,3.50
2023-05-07T13:08:31.161Z,4.70
2023-05-07T13:13:24.265Z,4.70
2023-05-07T13:18:17.568Z,2.97
2023-05-07T13:23:12.100Z,5.43
2023-05-07T13:28:10.678Z,4.07
2023-05-07T13:33:04.907Z,4.13
2023-05-07T13:37:58.035Z,5.32
2023-05-07T13:42:52.930Z,4.10
2023-05-07T13:47:54.149Z,3.95
2023-05-07T13:52:51.604Z,3.83
2023-05-07T13:57:44.705Z,4.20
2023-05-07T14:02:37.947Z,4.35
2023-05-07T14:07:32.449Z,5.82
2023-05-07T14:12:25.816Z,5.03
2023-05-07T14:17:19.092Z,5.53
2023-05-07T14:22:12.230Z,6.75
2023-05-07T14:27:07.046Z,3.85
2023-05-07T14:32:00.136Z,4.95
2023-05-07T14:36:53.321Z,4.80
2023-05-07T14:41:46.328Z,4.10
2023-05-07T14:46:40.896Z,5.88
2023-05-07T14:51:35.203Z,4.15
2023-05-07T14:56:28.522Z,3.88
2023-05-07T15:01:22.959Z,4.35
2023-05-07T15:06:17.798Z,4.72
2023-05-07T15:11:12.906Z,5.18
2023-05-07T15:16:06.337Z,5.00
2023-05-07T15:20:59.866Z,6.57
2023-05-07T15:25:54.641Z,4.03
2023-05-07T15:30:47.787Z,6.18
2023-05-07T15:35:40.906Z,4.43
2023-05-07T15:40:36.300Z,4.97
2023-05-07T15:45:31.376Z,5.78
2023-05-07T15:50:24.650Z,3.83
2023-05-07T15:55:18.291Z,4.85
2023-05-07T16:00:12.869Z,4.97
2023-05-07T16:05:11.092Z,5.70
2023-05-07T16:10:04.491Z,5.80
2023-05-07T16:14:57.605Z,6.70
2023-05-07T16:19:51.966Z,9.23
2023-05-07T16:24:46.462Z,4.38
2023-05-07T16:29:40.107Z,7.68
2023-05-07T16:34:33.212Z,6.63
2023-05-07T16:39:26.283Z,4.25
2023-05-07T16:44:20.692Z,4.75
2023-05-07T16:49:13.842Z,7.72
2023-05-07T16:54:07.162Z,5.93
2023-05-07T16:59:03.333Z,7.40
2023-05-07T17:03:57.830Z,6.90
2023-05-07T17:08:51.595Z,7.07
2023-05-07T17:13:44.652Z,8.25
2023-05-07T17:18:37.797Z,9.88
2023-05-07T17:23:32.318Z,11.45
2023-05-07T17:28:25.453Z,10.98
2023-05-07T17:33:21.544Z,6.13
2023-05-07T17:38:15.172Z,8.93
2023-05-07T17:43:09.586Z,9.93
2023-05-07T17:48:03.466Z,8.88
2023-05-07T17:52:56.576Z,9.98
2023-05-07T17:57:49.635Z,11.73
2023-05-07T18:02:44.340Z,5.93
2023-05-07T18:07:37.564Z,8.07
2023-05-07T18:12:30.633Z,9.32
2023-05-07T18:17:24.320Z,5.55
2023-05-07T18:22:18.921Z,7.90
2023-05-07T18:27:13.641Z,7.25
2023-05-07T18:32:07.042Z,5.60
2023-05-07T18:37:00.134Z,5.93
2023-05-07T18:41:54.543Z,6.93
2023-05-07T18:46:48.852Z,5.45
2023-05-07T18:51:41.982Z,8.05
2023-05-07T18:56:35.121Z,4.90
2023-05-07T19:01:29.758Z,5.53
2023-05-07T19:06:22.964Z,4.65
2023-05-07T19:11:16.597Z,5.20
2023-05-07T19:16:13.532Z,5.40
2023-05-07T19:21:08.882Z,6.38
2023-05-07T19:26:04.033Z,4.72
2023-05-07T19:30:57.176Z,5.70
2023-05-07T19:35:50.218Z,6.55
2023-05-07T19:40:44.664Z,4.68
2023-05-07T19:45:37.985Z,4.10
2023-05-07T19:50:31.132Z,4.57
2023-05-07T19:55:24.488Z,4.22
2023-05-07T20:00:21.287Z,4.45
2023-05-07T20:05:14.456Z,3.17
2023-05-07T20:10:08.498Z,4.35
2023-05-07T20:15:01.878Z,4.00
2023-05-07T20:19:56.991Z,4.43
2023-05-07T20:24:50.144Z,4.35
2023-05-07T20:29:43.241Z,6.65
2023-05-07T20:34:36.375Z,5.63
2023-05-07T20:39:30.792Z,5.53
2023-05-07T20:44:23.771Z,3.75
2023-05-07T20:49:16.830Z,6.88
2023-05-07T20:54:11.081Z,5.03
2023-05-07T20:59:05.545Z,5.55
2023-05-07T21:03:58.637Z,4.00
2023-05-07T21:08:51.730Z,4.63
2023-05-07T21:13:44.836Z,3.92
2023-05-07T21:18:39.409Z,4.07
2023-05-07T21:23:32.518Z,4.75
2023-05-07T21:28:25.635Z,4.18
2023-05-07T21:33:18.753Z,3.85
2023-05-07T21:38:13.285Z,3.67
2023-05-07T21:43:06.432Z,9.77
2023-05-07T21:47:59.629Z,5.82
2023-05-07T21:52:52.825Z,4.45
2023-05-07T21:58:01.259Z,5.18
2023-05-07T22:02:58.535Z,4.70
2023-05-07T22:07:51.799Z,3.95
2023-05-07T22:12:44.852Z,4.15
2023-05-07T22:17:39.503Z,5.15
2023-05-07T22:22:32.577Z,5.15
2023-05-07T22:27:25.692Z,5.15
2023-05-07T22:32:18.973Z,4.13
2023-05-07T22:37:13.476Z,5.00
2023-05-07T22:42:07.567Z,3.65
2023-05-07T22:47:00.680Z,6.03
2023-05-07T22:51:53.830Z,3.13
2023-05-07T22:56:48.321Z,4.05
2023-05-07T23:01:41.732Z,3.78
2023-05-07T23:06:34.835Z,4.05
2023-05-07T23:11:27.919Z,3.40
2023-05-07T23:16:22.445Z,3.33
2023-05-07T23:21:15.534Z,5.28
2023-05-07T23:26:08.596Z,3.65
2023-05-07T23:31:01.858Z,5.63
2023-05-07T23:36:01.567Z,5.45
2023-05-07T23:40:54.913Z,7.68
2023-05-07T23:45:47.996Z,4.65
2023-05-07T23:50:41.015Z,5.97
2023-05-07T23:55:35.508Z,3.47
